Estación Meteorológica Peña el Pijo (Robertgarden) [ 01/30/23 15:30:04 CET ]

Fecha Hora Presion(HPa) Temp (°C) Humedad % Rocio (°C) Viento ( m/s) Direccion Lluvia 1Hora(mm) Lluvia 24H(mm) LLuvia Total(mm)
2010-Jun-17 01:01:13 1009.800 8.4 77 4.6         120.17
2010-Jun-17 02:01:13 1009.700 7.8 80 4.6         120.17
2010-Jun-17 03:03:10 1009.700 7.5 82 4.6         120.17
2010-Jun-17 04:01:18 1009.500 7.1 83 4.4         120.17
2010-Jun-17 05:01:12 1009.200 6.7 85 4.3         120.17
2010-Jun-17 06:01:16 1008.900 6.4 86 4.2         120.17
2010-Jun-17 07:01:11 1009.100 5.6 87 3.6         120.17
2010-Jun-17 08:01:14 1009.200 8.1 89 6.4         120.17
2010-Jun-17 09:01:17 1009.100 13.2 72 8.3         120.17
2010-Jun-17 10:01:13 1009.200 17.9 55 8.7         120.17
2010-Jun-17 11:01:12 1008.900 20.9 45 8.5         120.17
2010-Jun-17 12:01:12 1008.800 23.9 40 9.5         120.17
2010-Jun-17 13:01:18 1008.700 25.7 34 8.6         120.17
2010-Jun-17 14:01:12 1008.200 25.9 35 9.2         120.17
2010-Jun-17 15:01:14 1007.600 24.7 34 7.7         120.17
2010-Jun-17 16:01:11 1007.200 24.9 33 7.5 0.7 SW     120.17
2010-Jun-17 17:01:11 1007.300 26.5 31 8.0         120.17
2010-Jun-17 18:01:18 1007.600 23.6 39 8.8         120.17
2010-Jun-17 19:01:16 1007.700 21.8 44 8.9         120.17
2010-Jun-17 20:01:12 1008.300 20.6 47 8.8         120.17
2010-Jun-17 21:01:17 1008.700 18.9 52 8.8         120.17
2010-Jun-17 22:01:16 1009.200 17.5 57 8.8         120.17
2010-Jun-17 23:01:12 1010.100 16.1 62 8.8         120.17

Temperatura Máxima:26°    Temperatura Mínima:
Presión Máxima:1010.100 Hpa    Presión Mínima:1007.200 Hpa


Volver